Time;durP1;ratioP1;P1;durP2;ratioP2;P2;SDS_P1;SDS_P2;PMS_P1;PMS_P2;Temp;Humidity;BMP_temperature;BMP_pressure;BME280_temperature;BME280_humidity;BME280_pressure;Samples;Min_cycle;Max_cycle;Signal;HPM_P1;HPM_P2
2023/07/24 00:00:09;;;;;;;10.45;7.60;;;;;;;25.80;71.33;97926.38;4985669;28;104127;-61
2023/07/24 00:02:37;;;;;;;11.83;9.03;;;;;;;22.58;87.57;97895.78;4992414;28;103094;-61
2023/07/24 00:05:06;;;;;;;7.70;6.90;;;;;;;24.09;81.85;97966.50;4995572;28;102931;-60
2023/07/24 00:07:34;;;;;;;7.82;6.72;;;;;;;24.82;79.56;97961.59;4992064;28;104055;-60
2023/07/24 00:10:03;;;;;;;8.45;7.53;;;;;;;24.99;77.62;97941.09;4984290;28;103266;-60
2023/07/24 00:12:33;;;;;;;6.95;6.25;;;;;;;25.34;75.44;97917.94;4985351;28;104021;-60
2023/07/24 00:15:01;;;;;;;7.90;7.10;;;;;;;25.50;75.95;97903.84;4988579;28;104235;-60
2023/07/24 00:17:29;;;;;;;9.20;7.77;;;;;;;25.28;78.10;97914.25;4994852;28;103060;-60
2023/07/24 00:19:57;;;;;;;7.22;6.53;;;;;;;25.38;77.75;97913.72;4981709;28;103266;-60
2023/07/24 00:22:26;;;;;;;9.53;8.47;;;;;;;24.15;82.94;97914.41;4991525;28;103258;-61
2023/07/24 00:24:54;;;;;;;10.93;8.40;;;;;;;23.34;86.58;97914.03;4989709;28;102987;-60
2023/07/24 00:27:22;;;;;;;11.40;8.90;;;;;;;22.70;89.93;97913.03;4971180;28;103509;-60
2023/07/24 00:29:51;;;;;;;6.80;6.10;;;;;;;23.88;85.88;97910.16;4959186;28;104231;-60
2023/07/24 00:32:19;;;;;;;10.27;8.07;;;;;;;23.95;83.91;97884.81;4991410;28;102866;-60
2023/07/24 00:34:48;;;;;;;7.47;6.22;;;;;;;24.61;81.20;97901.47;4975295;28;103134;-60
2023/07/24 00:37:16;;;;;;;10.45;7.65;;;;;;;24.69;81.09;97901.22;4992821;28;105442;-60
2023/07/24 00:39:44;;;;;;;7.97;7.17;;;;;;;24.95;80.43;97891.28;4982154;28;103068;-60
2023/07/24 00:42:12;;;;;;;6.60;6.00;;;;;;;25.13;78.40;97886.72;4988227;28;103675;-60
2023/07/24 00:44:41;;;;;;;6.47;5.82;;;;;;;25.32;77.58;97872.19;4995699;28;104320;-60
2023/07/24 00:47:10;;;;;;;8.32;7.53;;;;;;;25.02;78.94;97873.13;4975345;28;104265;-61
2023/07/24 00:49:39;;;;;;;7.40;6.70;;;;;;;25.29;76.71;97869.91;4986112;28;103089;-60
2023/07/24 00:52:08;;;;;;;6.15;5.53;;;;;;;25.41;75.12;97859.19;4986229;28;102924;-60
2023/07/24 00:54:36;;;;;;;7.22;6.53;;;;;;;25.39;75.55;97858.59;4975682;28;104004;-60
2023/07/24 00:57:06;;;;;;;9.03;7.97;;;;;;;24.80;77.63;97848.38;4974918;28;103770;-60
2023/07/24 00:59:36;;;;;;;8.27;7.47;;;;;;;24.31;82.36;97851.81;4993444;28;105142;-60
2023/07/24 01:02:07;;;;;;;8.53;7.57;;;;;;;24.39;81.64;97859.69;4969685;28;102901;-61
2023/07/24 01:04:36;;;;;;;6.53;5.83;;;;;;;24.93;78.64;97850.13;4970099;28;102730;-61
2023/07/24 01:07:05;;;;;;;8.50;7.47;;;;;;;24.98;76.75;97842.19;4994654;28;104156;-60
2023/07/24 01:09:33;;;;;;;6.93;5.75;;;;;;;25.15;75.62;97843.28;4988924;28;103697;-60
2023/07/24 01:12:08;;;;;;;6.55;5.85;;;;;;;25.11;76.12;97842.91;4959162;28;102942;-60
2023/07/24 01:14:44;;;;;;;7.03;6.32;;;;;;;25.06;76.26;97831.09;4978752;28;102958;-61
2023/07/24 01:17:17;;;;;;;7.07;6.38;;;;;;;25.10;75.39;97829.59;4987423;28;103245;-60
2023/07/24 01:19:49;;;;;;;9.13;7.30;;;;;;;24.77;77.63;97828.00;4972734;28;103545;-60
2023/07/24 01:22:26;;;;;;;9.75;8.45;;;;;;;23.62;82.48;97822.94;4977502;28;102682;-60
2023/07/24 01:25:05;;;;;;;9.23;7.80;;;;;;;23.50;84.79;97827.34;4993843;28;102960;-60
2023/07/24 01:27:42;;;;;;;9.15;8.23;;;;;;;22.36;90.99;97817.94;4990885;28;103249;-60
2023/07/24 01:30:11;;;;;;;8.63;7.55;;;;;;;23.00;89.20;97825.38;4994015;28;103139;-61
2023/07/24 01:32:39;;;;;;;8.93;8.03;;;;;;;23.24;85.53;97822.03;4968843;28;102988;-60
2023/07/24 01:35:09;;;;;;;7.10;6.33;;;;;;;23.90;83.49;97822.59;4992531;28;103090;-61
2023/07/24 01:37:40;;;;;;;7.10;6.37;;;;;;;24.27;80.68;97814.72;4990611;28;103485;-60
2023/07/24 01:40:09;;;;;;;6.68;5.97;;;;;;;24.21;81.18;97813.72;4994358;28;102950;-61
2023/07/24 01:42:39;;;;;;;5.40;4.90;;;;;;;24.51;79.32;97817.44;4978858;28;103099;-60
2023/07/24 01:45:08;;;;;;;8.77;7.88;;;;;;;24.54;79.49;97822.38;4973436;28;102828;-60
2023/07/24 01:47:36;;;;;;;8.20;7.20;;;;;;;24.45;79.86;97821.00;4971059;28;104194;-60
2023/07/24 01:50:08;;;;;;;7.20;6.50;;;;;;;24.57;79.90;97824.66;4971109;28;103071;-60
2023/07/24 01:52:36;;;;;;;7.60;6.80;;;;;;;24.41;80.16;97827.91;4961734;28;103066;-60
2023/07/24 01:55:06;;;;;;;7.75;6.95;;;;;;;24.42;80.46;97821.44;4973892;28;103693;-61
2023/07/24 01:57:33;;;;;;;8.48;7.47;;;;;;;24.25;80.97;97825.75;4992554;28;103451;-60
2023/07/24 02:00:03;;;;;;;9.13;7.78;;;;;;;24.20;82.14;97822.84;4988050;28;103420;-60
2023/07/24 02:02:31;;;;;;;7.20;6.40;;;;;;;24.45;79.99;97812.09;4984363;28;103430;-60
2023/07/24 02:05:00;;;;;;;6.53;5.40;;;;;;;24.59;79.18;97821.75;4988059;28;103134;-61
2023/07/24 02:07:28;;;;;;;6.53;5.93;;;;;;;24.63;78.71;97823.78;4972195;28;104123;-60
2023/07/24 02:09:58;;;;;;;8.60;7.70;;;;;;;24.50;78.50;97823.88;4969542;28;103432;-60
2023/07/24 02:12:29;;;;;;;8.00;7.20;;;;;;;24.35;80.22;97820.66;4985951;28;103014;-60
2023/07/24 02:14:57;;;;;;;6.63;5.93;;;;;;;24.62;79.87;97811.31;4970072;28;102966;-60
2023/07/24 02:17:27;;;;;;;8.90;7.43;;;;;;;24.47;79.68;97810.84;4991777;28;103556;-60
2023/07/24 02:19:56;;;;;;;7.77;6.40;;;;;;;24.50;79.43;97804.16;4988357;28;104300;-61
2023/07/24 02:22:24;;;;;;;7.78;6.97;;;;;;;24.36;79.99;97806.16;4956625;28;103169;-59
2023/07/24 02:24:53;;;;;;;8.02;7.22;;;;;;;24.22;81.13;97810.78;4987217;28;102912;-60
2023/07/24 02:27:28;;;;;;;7.85;7.07;;;;;;;24.21;81.88;97809.16;4995454;28;104349;-60
2023/07/24 02:29:59;;;;;;;9.82;8.32;;;;;;;24.08;82.01;97805.69;4973042;28;104266;-60
2023/07/24 02:32:28;;;;;;;6.57;5.93;;;;;;;24.48;80.21;97804.38;4966298;28;102841;-60
2023/07/24 02:34:56;;;;;;;9.00;8.10;;;;;;;23.70;82.09;97812.94;4988862;28;102752;-61
2023/07/24 02:37:24;;;;;;;9.40;8.40;;;;;;;22.84;87.22;97810.50;4989714;28;104324;-60
2023/07/24 02:39:53;;;;;;;8.05;7.25;;;;;;;23.92;82.73;97808.88;4972841;28;104363;-60
2023/07/24 02:42:21;;;;;;;9.25;8.10;;;;;;;23.43;83.21;97798.75;4956068;28;102971;-61
2023/07/24 02:44:49;;;;;;;7.70;6.90;;;;;;;23.94;81.62;97790.63;4975207;28;102731;-61
2023/07/24 02:47:17;;;;;;;9.05;7.10;;;;;;;23.89;79.65;97788.56;4973298;28;104610;-61
2023/07/24 02:49:46;;;;;;;9.90;8.05;;;;;;;23.95;79.48;97787.69;4993149;28;102927;-60
2023/07/24 02:52:14;;;;;;;7.80;6.65;;;;;;;24.09;79.01;97793.84;4961701;28;102795;-61
2023/07/24 02:54:42;;;;;;;10.63;8.40;;;;;;;23.86;77.11;97786.28;4974876;28;104028;-60
2023/07/24 02:57:10;;;;;;;9.30;7.45;;;;;;;24.04;76.44;97774.78;4972554;28;104617;-61
2023/07/24 02:59:39;;;;;;;9.33;8.10;;;;;;;23.65;77.98;97779.38;4993221;28;103182;-60
2023/07/24 03:02:07;;;;;;;8.05;7.25;;;;;;;24.13;76.38;97784.31;4969342;28;102907;-61
2023/07/24 03:04:37;;;;;;;12.73;8.20;;;;;;;23.99;77.46;97777.31;4988604;28;103708;-60
2023/07/24 03:07:07;;;;;;;9.60;8.60;;;;;;;22.61;82.07;97766.16;5000471;28;104357;-60
2023/07/24 03:09:36;;;;;;;11.10;9.05;;;;;;;22.31;82.80;97761.25;4973997;28;104291;-60
2023/07/24 03:12:04;;;;;;;8.57;7.53;;;;;;;23.21;80.62;97757.78;4983500;28;103217;-61
2023/07/24 03:14:32;;;;;;;7.60;6.75;;;;;;;23.90;77.53;97759.72;4992786;28;103753;-61
2023/07/24 03:17:00;;;;;;;8.63;7.22;;;;;;;24.05;75.83;97762.97;4974540;28;104731;-60
2023/07/24 03:19:30;;;;;;;8.88;7.82;;;;;;;23.80;78.53;97752.13;4988841;28;103275;-61
2023/07/24 03:21:58;;;;;;;10.50;9.40;;;;;;;21.89;87.34;97743.59;4980233;28;104404;-61
2023/07/24 03:24:28;;;;;;;10.38;8.93;;;;;;;22.00;89.15;97735.97;4991536;28;103770;-61
2023/07/24 03:26:56;;;;;;;9.63;8.33;;;;;;;22.40;86.76;97738.44;4991610;28;104196;-60
2023/07/24 03:29:24;;;;;;;10.43;8.73;;;;;;;22.24;86.93;97748.81;4992296;28;103972;-60
2023/07/24 03:31:53;;;;;;;8.70;7.80;;;;;;;23.01;84.23;97774.00;4970661;28;104406;-60
2023/07/24 03:34:21;;;;;;;7.47;6.67;;;;;;;23.54;79.82;97763.06;4995824;28;102817;-60
2023/07/24 03:36:49;;;;;;;10.10;8.90;;;;;;;22.25;87.51;97762.06;4987159;28;104158;-60
2023/07/24 03:39:17;;;;;;;12.07;9.80;;;;;;;21.45;91.77;97761.25;4976879;28;104095;-61
2023/07/24 03:41:47;;;;;;;10.45;9.35;;;;;;;21.12;93.94;97761.97;4984109;28;102788;-60
2023/07/24 03:44:16;;;;;;;10.35;9.05;;;;;;;21.39;92.04;97757.50;4994851;28;103862;-61
2023/07/24 03:46:44;;;;;;;7.88;7.07;;;;;;;22.59;87.04;97757.50;4994222;28;104080;-60
2023/07/24 03:49:13;;;;;;;7.78;6.93;;;;;;;23.21;83.47;97763.19;4995385;28;103296;-62
2023/07/24 03:51:42;;;;;;;8.90;7.05;;;;;;;23.50;82.15;97751.88;4988432;28;103156;-62
2023/07/24 03:54:11;;;;;;;9.90;8.80;;;;;;;23.38;82.82;97748.19;4993347;28;103395;-64
2023/07/24 03:56:39;;;;;;;10.07;7.97;;;;;;;23.46;82.97;97756.06;4997817;28;103090;-64
2023/07/24 03:59:09;;;;;;;6.47;5.88;;;;;;;23.83;81.41;97757.06;4987693;28;103213;-64
2023/07/24 04:01:38;;;;;;;8.80;7.90;;;;;;;23.95;80.19;97754.50;4985200;28;102787;-64
2023/07/24 04:04:07;;;;;;;9.88;8.73;;;;;;;23.41;82.36;97753.16;4995634;28;103016;-64
2023/07/24 04:06:36;;;;;;;9.63;8.57;;;;;;;22.64;86.63;97763.09;4991956;28;103035;-64
2023/07/24 04:09:04;;;;;;;11.15;9.30;;;;;;;22.54;88.38;97761.63;4985642;28;103251;-64
2023/07/24 04:11:33;;;;;;;10.80;9.15;;;;;;;22.52;86.42;97763.69;4992475;28;103689;-61
2023/07/24 04:14:02;;;;;;;9.55;8.55;;;;;;;23.30;84.33;97758.38;4994961;28;103813;-62
2023/07/24 04:16:32;;;;;;;8.75;7.78;;;;;;;23.53;83.26;97746.06;4990869;28;104508;-61
2023/07/24 04:19:01;;;;;;;8.70;7.60;;;;;;;23.93;80.98;97735.03;4985188;28;103154;-61
2023/07/24 04:21:30;;;;;;;7.50;6.80;;;;;;;24.12;80.74;97731.38;4978580;28;103018;-61
2023/07/24 04:24:00;;;;;;;7.05;6.35;;;;;;;24.29;79.89;97729.78;4993076;28;104066;-61
2023/07/24 04:26:29;;;;;;;8.57;7.53;;;;;;;24.09;80.43;97729.09;4976843;28;104069;-65
2023/07/24 04:28:58;;;;;;;8.68;7.70;;;;;;;24.19;80.49;97724.91;4985913;28;103139;-62
2023/07/24 04:31:27;;;;;;;9.13;7.83;;;;;;;24.20;80.02;97723.00;4973451;28;102910;-62
2023/07/24 04:33:57;;;;;;;8.95;8.05;;;;;;;23.79;82.20;97719.97;5000562;28;103033;-64
2023/07/24 04:36:26;;;;;;;9.88;8.02;;;;;;;23.80;83.66;97719.78;4993511;28;103393;-65
2023/07/24 04:38:55;;;;;;;10.57;9.07;;;;;;;23.16;83.38;97703.69;4983995;28;104130;-65
2023/07/24 04:41:24;;;;;;;10.50;7.90;;;;;;;23.59;81.29;97699.38;4988184;28;102951;-65
2023/07/24 04:43:52;;;;;;;10.10;8.80;;;;;;;23.91;79.15;97699.34;4999186;28;102687;-65
2023/07/24 04:46:21;;;;;;;8.43;7.50;;;;;;;24.26;77.59;97722.13;4999844;28;105322;-65
2023/07/24 04:48:50;;;;;;;8.85;7.95;;;;;;;24.48;76.85;97707.19;4966231;28;103343;-64
2023/07/24 04:51:20;;;;;;;10.65;8.98;;;;;;;24.38;77.10;97698.78;4987954;28;102854;-64
2023/07/24 04:53:50;;;;;;;9.60;8.60;;;;;;;24.40;77.97;97701.25;4981070;28;103141;-65
2023/07/24 04:56:19;;;;;;;10.35;8.73;;;;;;;23.83;79.16;97707.72;4993454;28;103779;-65
2023/07/24 04:58:47;;;;;;;10.85;9.73;;;;;;;23.40;79.48;97711.09;4983659;28;103256;-65
2023/07/24 05:01:16;;;;;;;10.03;8.97;;;;;;;23.97;79.63;97709.28;4985381;28;102878;-65
2023/07/24 05:03:44;;;;;;;7.85;7.05;;;;;;;24.45;78.26;97699.53;4994233;28;103197;-62
2023/07/24 05:06:18;;;;;;;7.22;6.50;;;;;;;24.75;77.11;97688.84;4988973;28;103443;-62
2023/07/24 05:08:48;;;;;;;7.18;6.47;;;;;;;25.00;75.69;97691.50;4980229;28;104211;-62
2023/07/24 05:11:16;;;;;;;10.77;9.30;;;;;;;24.77;76.84;97681.34;4995130;28;103472;-63
2023/07/24 05:13:46;;;;;;;7.30;6.57;;;;;;;24.99;77.08;97695.25;4988249;28;104151;-62
2023/07/24 05:16:15;;;;;;;8.13;7.25;;;;;;;25.17;76.49;97700.66;4986165;28;103083;-62
2023/07/24 05:18:44;;;;;;;9.82;7.65;;;;;;;25.30;76.01;97698.59;4983690;28;103267;-65
2023/07/24 05:21:12;;;;;;;8.75;7.40;;;;;;;25.43;75.42;97692.19;4993060;28;102892;-62
2023/07/24 05:23:42;;;;;;;8.50;7.53;;;;;;;25.42;74.48;97693.25;4993801;28;102732;-62
2023/07/24 05:26:13;;;;;;;7.47;6.63;;;;;;;25.45;73.49;97692.78;4984487;28;103658;-62
2023/07/24 05:28:41;;;;;;;7.97;7.17;;;;;;;25.48;72.59;97694.25;4988460;28;103198;-62
2023/07/24 05:31:10;;;;;;;7.20;6.50;;;;;;;25.57;72.87;97700.97;4993215;28;102696;-62
2023/07/24 05:33:39;;;;;;;10.00;8.80;;;;;;;25.06;72.45;97720.31;4993119;28;103153;-62
2023/07/24 05:36:08;;;;;;;10.27;8.75;;;;;;;24.98;73.83;97723.34;4980835;28;105038;-62
2023/07/24 05:38:37;;;;;;;9.27;7.30;;;;;;;25.27;74.23;97733.34;4979123;28;103168;-62
2023/07/24 05:41:07;;;;;;;8.77;7.57;;;;;;;25.54;73.33;97736.59;4992669;28;102783;-62
2023/07/24 05:43:38;;;;;;;9.20;7.40;;;;;;;25.60;73.52;97739.19;4984503;28;103778;-62
2023/07/24 05:46:08;;;;;;;7.87;7.00;;;;;;;25.66;73.05;97743.69;4984645;28;103205;-62
2023/07/24 05:48:40;;;;;;;9.65;7.85;;;;;;;25.59;73.28;97737.56;4986328;28;103523;-61
2023/07/24 05:51:12;;;;;;;10.88;8.80;;;;;;;25.55;71.01;97740.94;4990039;28;102779;-61
2023/07/24 05:53:42;;;;;;;7.90;7.10;;;;;;;25.71;70.60;97746.50;4994768;28;102926;-62
2023/07/24 05:56:12;;;;;;;7.90;6.78;;;;;;;25.84;71.26;97754.47;4962924;28;103453;-62
2023/07/24 05:58:44;;;;;;;8.90;7.53;;;;;;;25.82;71.07;97753.06;4979565;28;103164;-62
2023/07/24 06:01:14;;;;;;;9.17;7.97;;;;;;;25.67;70.87;97745.34;4966120;28;103290;-63
2023/07/24 06:03:47;;;;;;;8.37;6.83;;;;;;;25.76;70.47;97754.78;4980277;28;103645;-60
2023/07/24 06:06:21;;;;;;;9.00;7.40;;;;;;;25.93;72.25;97750.38;4981389;28;104853;-61
2023/07/24 06:08:55;;;;;;;12.37;9.70;;;;;;;25.40;73.99;97754.84;4987452;28;103153;-60
2023/07/24 06:11:29;;;;;;;9.52;8.32;;;;;;;25.65;73.44;97752.03;4996746;28;102613;-61
2023/07/24 06:14:04;;;;;;;9.87;8.30;;;;;;;25.74;72.02;97740.66;4993421;28;103106;-60
2023/07/24 06:16:37;;;;;;;7.33;6.63;;;;;;;26.09;72.22;97737.22;4991721;28;103468;-62
2023/07/24 06:19:06;;;;;;;9.00;7.35;;;;;;;26.20;72.07;97733.75;4972816;28;103202;-62
2023/07/24 06:21:38;;;;;;;8.73;7.82;;;;;;;26.23;72.40;97730.59;5000698;28;102587;-64
2023/07/24 06:24:12;;;;;;;7.53;6.50;;;;;;;26.42;71.83;97749.22;4963746;28;103724;-64
2023/07/24 06:26:41;;;;;;;9.05;8.15;;;;;;;26.22;71.50;97743.28;5001269;28;103356;-64
2023/07/24 06:29:12;;;;;;;7.90;6.90;;;;;;;26.24;71.33;97734.94;4965512;28;104223;-64
2023/07/24 06:31:42;;;;;;;9.80;8.32;;;;;;;26.20;69.97;97728.34;5000249;28;102749;-64
2023/07/24 06:34:11;;;;;;;10.45;8.35;;;;;;;26.38;69.57;97722.84;4980377;28;102693;-64
2023/07/24 06:36:41;;;;;;;10.30;8.70;;;;;;;26.16;67.12;97721.75;4987197;28;103283;-65
2023/07/24 06:39:10;;;;;;;8.98;7.57;;;;;;;26.57;68.91;97718.97;4998214;28;103034;-65
2023/07/24 06:41:39;;;;;;;7.20;6.50;;;;;;;26.69;70.71;97722.50;4991213;28;102979;-64
2023/07/24 06:44:09;;;;;;;9.07;7.72;;;;;;;26.71;69.77;97709.53;4970777;28;102970;-64
2023/07/24 06:46:41;;;;;;;6.75;6.07;;;;;;;26.92;68.79;97711.66;4990042;28;104684;-65
2023/07/24 06:49:11;;;;;;;8.27;7.38;;;;;;;26.97;68.63;97689.28;4995499;28;103456;-64
2023/07/24 06:51:40;;;;;;;8.65;7.63;;;;;;;26.97;68.91;97687.41;4997321;28;102741;-64
2023/07/24 06:54:09;;;;;;;8.87;7.97;;;;;;;26.97;67.64;97698.22;4962649;28;104041;-64
2023/07/24 06:56:38;;;;;;;8.60;7.50;;;;;;;27.13;68.01;97706.66;4975835;28;104459;-65
2023/07/24 06:59:07;;;;;;;8.68;7.40;;;;;;;26.91;66.51;97693.75;5002370;28;103624;-64
2023/07/24 07:01:37;;;;;;;7.93;6.30;;;;;;;27.09;67.38;97700.09;4984761;28;103143;-65
2023/07/24 07:04:07;;;;;;;7.63;6.82;;;;;;;26.98;69.19;97685.47;4997908;28;104034;-64
2023/07/24 07:06:36;;;;;;;11.07;9.13;;;;;;;26.40;69.20;97675.53;4993418;28;104522;-62
2023/07/24 07:09:07;;;;;;;11.93;8.73;;;;;;;26.35;66.68;97671.88;4986542;28;103138;-62
2023/07/24 07:11:36;;;;;;;11.60;9.00;;;;;;;26.28;65.68;97671.16;4994823;28;102707;-62
2023/07/24 07:14:08;;;;;;;9.43;8.13;;;;;;;26.70;64.99;97686.22;4995929;28;103010;-62
2023/07/24 07:16:37;;;;;;;10.93;8.85;;;;;;;26.26;66.94;97686.81;4991975;28;104072;-62
2023/07/24 07:19:09;;;;;;;10.07;8.80;;;;;;;25.65;67.16;97701.50;4988281;28;103137;-62
2023/07/24 07:21:38;;;;;;;8.77;7.88;;;;;;;26.35;65.76;97715.19;4981039;28;102878;-62
2023/07/24 07:24:07;;;;;;;8.50;7.60;;;;;;;26.65;64.66;97721.31;5000529;28;102690;-62
2023/07/24 07:26:36;;;;;;;8.10;7.30;;;;;;;26.83;64.87;97729.34;5003937;28;104104;-62
2023/07/24 07:29:05;;;;;;;9.88;8.60;;;;;;;26.71;66.44;97725.78;4979909;28;105691;-62
2023/07/24 07:31:33;;;;;;;11.60;8.70;;;;;;;26.17;67.41;97739.63;4992650;28;102723;-62
2023/07/24 07:34:03;;;;;;;10.13;8.70;;;;;;;26.13;66.92;97743.84;5007685;28;102701;-62
2023/07/24 07:36:33;;;;;;;9.45;8.00;;;;;;;26.66;64.78;97732.97;5000819;28;103797;-62
2023/07/24 07:39:02;;;;;;;8.57;7.67;;;;;;;26.67;65.43;97740.84;4990537;28;103788;-62
2023/07/24 07:41:31;;;;;;;8.02;7.10;;;;;;;27.05;66.43;97748.53;4968461;28;102788;-62
2023/07/24 07:43:59;;;;;;;9.55;8.20;;;;;;;27.09;63.65;97754.31;4992775;28;103727;-62
2023/07/24 07:46:27;;;;;;;10.67;8.57;;;;;;;26.80;64.56;97761.50;4995886;28;103687;-62
2023/07/24 07:48:58;;;;;;;10.68;8.73;;;;;;;26.47;65.12;97768.28;4990554;28;103029;-63
2023/07/24 07:51:27;;;;;;;8.70;7.80;;;;;;;27.09;63.92;97775.97;4979997;28;102965;-62
2023/07/24 07:53:58;;;;;;;9.35;8.02;;;;;;;26.45;64.87;97783.13;4993090;28;103108;-62
2023/07/24 07:56:27;;;;;;;9.88;7.85;;;;;;;26.90;63.73;97784.22;4997946;28;103368;-63
2023/07/24 07:58:56;;;;;;;8.68;7.70;;;;;;;26.96;63.70;97791.41;4981449;28;103920;-62
2023/07/24 08:01:25;;;;;;;9.90;8.23;;;;;;;26.67;64.45;97800.44;4995820;28;102736;-62
2023/07/24 08:03:57;;;;;;;11.07;8.48;;;;;;;26.51;65.55;97803.84;5002934;28;102848;-62
2023/07/24 08:06:26;;;;;;;8.75;7.43;;;;;;;26.98;65.04;97812.84;4991812;28;104224;-62
2023/07/24 08:08:58;;;;;;;8.77;7.60;;;;;;;27.22;64.95;97819.09;4984773;28;103258;-62
2023/07/24 08:11:27;;;;;;;9.90;8.43;;;;;;;26.81;66.42;97829.00;4983938;28;103198;-62
2023/07/24 08:13:58;;;;;;;9.23;8.23;;;;;;;26.71;69.34;97834.16;4991410;28;103751;-62
2023/07/24 08:16:28;;;;;;;10.10;8.30;;;;;;;26.68;71.04;97823.78;4995758;28;103032;-62
2023/07/24 08:18:57;;;;;;;11.07;8.88;;;;;;;26.33;73.74;97820.19;4978836;28;103970;-61
2023/07/24 08:21:26;;;;;;;10.57;9.07;;;;;;;26.31;75.07;97808.75;4990356;28;102994;-61
2023/07/24 08:23:56;;;;;;;8.18;7.32;;;;;;;26.89;73.83;97793.41;4991173;28;102702;-62
2023/07/24 08:26:27;;;;;;;9.77;7.57;;;;;;;26.97;73.66;97789.53;4992055;28;104712;-62
2023/07/24 08:28:56;;;;;;;9.02;7.97;;;;;;;26.90;75.38;97789.66;4985388;28;103186;-62
2023/07/24 08:31:25;;;;;;;11.40;9.30;;;;;;;26.12;78.37;97786.31;4986315;28;103132;-62
2023/07/24 08:33:54;;;;;;;11.88;9.80;;;;;;;25.80;82.54;97774.91;4992987;28;104263;-61
2023/07/24 08:36:23;;;;;;;12.65;9.75;;;;;;;25.73;83.07;97759.81;4988388;28;104316;-62
2023/07/24 08:38:53;;;;;;;11.27;9.57;;;;;;;25.32;85.83;97744.31;4989422;28;103496;-62
2023/07/24 08:41:23;;;;;;;9.93;8.77;;;;;;;26.09;84.42;97724.53;4983430;28;102749;-62
2023/07/24 08:43:55;;;;;;;11.65;9.45;;;;;;;25.11;85.91;97718.59;4991553;28;103113;-62
2023/07/24 08:46:26;;;;;;;7.35;6.57;;;;;;;26.75;82.23;97726.94;4991065;28;104444;-62
2023/07/24 08:48:57;;;;;;;12.35;10.48;;;;;;;25.53;86.72;97695.19;4967921;28;104097;-62
2023/07/24 08:51:27;;;;;;;13.15;10.07;;;;;;;25.11;92.40;97674.53;4980961;28;103120;-62
2023/07/24 08:53:58;;;;;;;8.05;7.25;;;;;;;26.41;85.81;97681.75;4973383;28;102746;-62
2023/07/24 08:56:27;;;;;;;10.70;8.70;;;;;;;27.09;83.87;97673.00;4996085;28;103674;-62
2023/07/24 08:58:59;;;;;;;9.23;8.30;;;;;;;27.41;82.79;97687.75;4972448;28;103895;-62
2023/07/24 09:01:28;;;;;;;11.00;9.50;;;;;;;27.43;83.10;97691.88;4993711;28;103062;-62
2023/07/24 09:03:58;;;;;;;10.30;9.23;;;;;;;27.23;83.96;97702.25;4994381;28;103000;-62
2023/07/24 09:06:28;;;;;;;11.07;9.15;;;;;;;27.02;82.20;97701.03;4979032;28;103398;-62
2023/07/24 09:08:59;;;;;;;10.05;8.20;;;;;;;27.55;80.88;97689.09;4965995;28;103024;-64
2023/07/24 09:11:29;;;;;;;9.48;8.30;;;;;;;27.84;79.64;97703.47;4994697;28;102670;-65
2023/07/24 09:14:00;;;;;;;10.50;8.33;;;;;;;27.61;79.50;97712.56;4998008;28;103066;-64
2023/07/24 09:16:29;;;;;;;9.35;8.20;;;;;;;28.02;79.74;97723.06;4977519;28;104395;-65
2023/07/24 09:19:00;;;;;;;9.77;8.68;;;;;;;27.83;79.02;97718.09;4991251;28;103193;-64
2023/07/24 09:21:44;;;;;;;9.88;8.20;;;;;;;27.73;78.15;97701.66;4992871;28;102790;-65
2023/07/24 09:24:20;;;;;;;9.55;8.30;;;;;;;26.95;80.03;97689.50;4993810;28;103042;-62
2023/07/24 09:26:52;;;;;;;8.38;7.20;;;;;;;26.45;80.52;97699.16;4979924;28;104316;-65
2023/07/24 09:29:35;;;;;;;7.95;7.15;;;;;;;26.98;79.92;97701.75;4992313;28;103047;-65
2023/07/24 09:32:06;;;;;;;9.20;6.85;;;;;;;27.42;76.32;97711.09;4982874;28;103892;-65
2023/07/24 09:34:42;;;;;;;9.30;7.30;;;;;;;27.01;77.65;97717.53;4985281;28;104113;-65
2023/07/24 09:37:13;;;;;;;8.77;7.35;;;;;;;27.12;80.67;97721.31;4978899;28;103345;-65
2023/07/24 09:39:47;;;;;;;9.17;7.70;;;;;;;27.19;79.19;97727.41;4966719;28;104343;-65
2023/07/24 09:42:18;;;;;;;8.02;6.85;;;;;;;27.40;78.83;97732.16;4968725;28;103060;-65
2023/07/24 09:44:50;;;;;;;8.63;7.13;;;;;;;27.68;76.30;97726.78;4985830;28;104086;-65
2023/07/24 09:47:22;;;;;;;8.07;7.25;;;;;;;27.57;79.04;97724.94;4974268;28;103318;-65
2023/07/24 09:50:14;;;;;;;7.23;6.43;;;;;;;28.29;75.65;97719.75;4980831;28;103158;-64
2023/07/24 09:52:49;;;;;;;8.30;6.93;;;;;;;27.70;75.63;97734.69;4995183;28;102594;-65
2023/07/24 09:55:28;;;;;;;7.82;6.47;;;;;;;27.80;76.64;97727.56;4996923;28;102663;-65
2023/07/24 09:58:02;;;;;;;7.23;6.57;;;;;;;28.42;74.43;97739.25;4971677;28;103283;-65
2023/07/24 10:00:34;;;;;;;8.25;7.45;;;;;;;28.27;76.30;97762.63;4992783;28;103362;-65
2023/07/24 10:03:05;;;;;;;7.83;6.97;;;;;;;28.34;77.05;97755.97;4992445;28;102876;-65
2023/07/24 10:05:35;;;;;;;11.63;8.13;;;;;;;28.34;75.91;97768.72;4990144;28;103031;-65
2023/07/24 10:08:06;;;;;;;8.32;7.53;;;;;;;28.22;75.92;97778.81;4999297;28;103012;-65
2023/07/24 10:10:37;;;;;;;8.35;7.40;;;;;;;27.48;76.14;97772.50;4999333;28;103224;-65
2023/07/24 10:13:10;;;;;;;8.05;7.25;;;;;;;27.80;76.58;97770.13;4989352;28;102815;-65
2023/07/24 10:15:43;;;;;;;9.15;7.22;;;;;;;27.62;76.63;97771.97;4995461;28;102743;-65
2023/07/24 10:18:13;;;;;;;6.97;6.28;;;;;;;27.96;76.01;97777.50;5002505;28;104009;-63
2023/07/24 10:20:43;;;;;;;7.55;6.75;;;;;;;27.94;76.83;97785.91;4983281;28;103487;-63
2023/07/24 10:23:19;;;;;;;9.32;7.30;;;;;;;27.75;77.58;97787.16;4987657;28;102881;-63
2023/07/24 10:25:52;;;;;;;7.07;6.38;;;;;;;27.54;78.39;97779.66;4997857;28;103039;-63
2023/07/24 10:28:33;;;;;;;8.23;6.38;;;;;;;27.39;77.81;97787.47;4993830;28;103280;-63
2023/07/24 10:31:08;;;;;;;7.07;6.20;;;;;;;27.75;76.37;97786.31;4995411;28;103045;-65
2023/07/24 10:33:46;;;;;;;6.25;5.65;;;;;;;28.06;74.91;97778.56;5001593;28;102742;-62
2023/07/24 10:36:20;;;;;;;7.05;6.32;;;;;;;27.60;77.97;97778.72;4994140;28;102766;-62
2023/07/24 10:38:54;;;;;;;5.50;4.97;;;;;;;28.19;76.86;97791.00;4998641;28;104479;-64
2023/07/24 10:41:35;;;;;;;6.13;5.20;;;;;;;27.98;77.14;97808.78;4998821;28;103252;-64
2023/07/24 10:44:06;;;;;;;8.35;6.20;;;;;;;27.40;80.70;97813.50;5003181;28;102607;-64
2023/07/24 10:46:42;;;;;;;5.80;5.20;;;;;;;27.89;78.31;97810.22;4993425;28;104321;-61
2023/07/24 10:49:14;;;;;;;8.38;6.50;;;;;;;27.73;78.59;97805.56;4990593;28;103057;-61
2023/07/24 10:51:44;;;;;;;6.40;5.75;;;;;;;27.96;78.82;97810.91;4992648;28;103303;-64
2023/07/24 10:54:14;;;;;;;7.25;5.60;;;;;;;27.64;80.84;97809.72;4997813;28;103189;-63
2023/07/24 10:56:44;;;;;;;8.18;6.65;;;;;;;26.86;83.74;97814.75;4997933;28;103832;-63
2023/07/24 10:59:15;;;;;;;7.28;6.50;;;;;;;26.84;83.04;97825.81;4993146;28;103068;-63
2023/07/24 11:01:48;;;;;;;7.60;6.65;;;;;;;26.58;83.75;97826.25;4983105;28;103216;-63
2023/07/24 11:04:22;;;;;;;8.20;7.10;;;;;;;26.26;86.71;97827.56;4984802;28;103021;-62
2023/07/24 11:06:57;;;;;;;8.90;7.25;;;;;;;25.88;87.80;97822.47;4997488;28;104032;-61
2023/07/24 11:09:37;;;;;;;8.02;6.85;;;;;;;25.89;88.61;97800.59;5000677;28;103071;-61
2023/07/24 11:12:16;;;;;;;7.28;6.47;;;;;;;25.94;87.83;97799.88;4993878;28;103042;-61
2023/07/24 11:14:55;;;;;;;9.15;7.22;;;;;;;25.61;89.72;97783.28;4994380;28;102659;-61
2023/07/24 11:17:37;;;;;;;9.02;7.32;;;;;;;25.78;89.12;97768.91;4995520;28;104126;-61
2023/07/24 11:20:09;;;;;;;8.10;6.57;;;;;;;25.16;91.51;97734.13;4995625;28;103065;-61
2023/07/24 11:22:45;;;;;;;9.10;7.10;;;;;;;25.05;92.18;97729.47;4995587;28;103147;-61
2023/07/24 11:25:14;;;;;;;8.80;7.47;;;;;;;25.10;93.60;97756.63;4994120;28;103025;-61
2023/07/24 11:27:47;;;;;;;8.98;7.57;;;;;;;25.45;91.82;97719.81;4992102;28;102953;-62
2023/07/24 11:30:23;;;;;;;9.03;7.43;;;;;;;25.58;92.23;97708.84;4995891;28;103831;-62
2023/07/24 11:32:55;;;;;;;8.48;7.05;;;;;;;25.44;94.80;97693.00;4997397;28;103530;-63
2023/07/24 11:35:25;;;;;;;9.25;7.63;;;;;;;25.57;93.72;97663.13;4993133;28;102819;-63
2023/07/24 11:37:56;;;;;;;7.75;6.95;;;;;;;25.33;93.98;97629.75;5001894;28;103737;-61